ナイロビ の空港の天気 - METARとTAF

ジョモ・ケニヤッタ国際空港 ( HKJK / NBO ) - ケニア ナイロビ
飛行場実況気象(Metar)
観測時間09/23 01:00 EAT (09/22 22:00 UTC)
風向・風速西南西 2m/s
視程10km以上
天気現象
全天の4割程度の雲 雲底高度 700m
気温15℃
湿度82%
気圧1022hPa
METARHKJK 222200Z 25003KT 9999 SCT023 15/12 Q1022 NOSIG
過去の天気等 Google飛行場航空写真 Wunderground天気予報

過去48時間のMETAR

飛行場予報(TAF)
発表時間: 9/22 20:00 EAT (9/22 17:00 UTC)
予報対象時間: 22日21時 EAT ~ 24日3時 EAT
風向・風速東 5m/s
視程10km以上
全天の4割程度の雲 雲底高度 790m
22日23時 EAT ~ 23日2時 EAT に徐々に
風向・風速不定 2m/s
全天の8割程度の雲 雲底高度 610m
23日4時 EAT ~ 23日8時 EAT に一時的に
全天の4割程度の雲 雲底高度 240m
全天の8割程度の雲 雲底高度 550m
23日11時 EAT ~ 23日14時 EAT に徐々に
風向・風速東 5m/s
全天の4割程度の雲 雲底高度 790m
23日23時 EAT ~ 24日2時 EAT に徐々に
風向・風速不定 2m/s
全天の8割程度の雲 雲底高度 610m
TAF HKJK 221700Z 2218/2324 09010KT 9999 SCT026
BECMG 2220/2223 VRB03KT BKN020
TEMPO 2301/2305 SCT008 BKN018
BECMG 2308/2311 09010KT SCT026
BECMG 2320/2323 VRB03KT BKN020